createdAt,value
2023-01-01T01:09:45.326Z,100.00
2023-01-01T01:15:03.661Z,100.00
2023-01-01T03:39:02.724Z,100.00
2023-01-01T03:55:34.387Z,100.00
2023-01-01T04:16:39.816Z,100.00
2023-01-01T04:21:31.546Z,100.00
2023-01-01T04:26:23.256Z,100.00
2023-01-01T04:31:14.978Z,100.00
2023-01-01T04:36:10.893Z,100.00
2023-01-01T04:41:04.340Z,100.00
2023-01-01T04:46:02.277Z,100.00
2023-01-01T04:51:01.097Z,100.00
2023-01-01T04:55:52.818Z,100.00
2023-01-01T05:00:52.239Z,100.00
2023-01-01T05:05:49.436Z,100.00
2023-01-01T05:10:42.953Z,100.00
2023-01-01T05:15:37.210Z,100.00
2023-01-01T05:20:29.016Z,100.00
2023-01-01T05:25:20.801Z,100.00
2023-01-01T05:30:12.709Z,100.00
2023-01-01T05:35:05.021Z,100.00
2023-01-01T05:39:57.465Z,100.00
2023-01-01T05:44:49.263Z,100.00
2023-01-01T05:49:41.952Z,100.00
2023-01-01T05:54:33.799Z,100.00
2023-01-01T05:59:25.618Z,100.00
2023-01-01T06:04:17.504Z,100.00
2023-01-01T06:09:11.763Z,98.94
2023-01-01T06:14:04.439Z,95.90
2023-01-01T06:18:56.267Z,94.81
2023-01-01T06:23:55.932Z,94.57
2023-01-01T06:28:48.995Z,93.97
2023-01-01T06:33:41.952Z,92.44
2023-01-01T06:38:44.513Z,92.15
2023-01-01T06:43:36.989Z,91.66
2023-01-01T06:48:32.158Z,93.28
2023-01-01T06:53:27.565Z,93.40
2023-01-01T06:58:19.590Z,92.87
2023-01-01T07:03:11.826Z,93.55
2023-01-01T07:08:06.300Z,92.21
2023-01-01T07:12:58.106Z,91.01
2023-01-01T07:17:49.968Z,90.73
2023-01-01T07:22:42.141Z,89.42
2023-01-01T07:27:34.166Z,89.17
2023-01-01T07:32:28.148Z,88.48
2023-01-01T07:37:21.468Z,87.56
2023-01-01T07:42:13.211Z,86.81
2023-01-01T07:47:19.090Z,86.38
2023-01-01T07:52:11.464Z,85.37
2023-01-01T07:57:03.443Z,84.68
2023-01-01T08:01:55.448Z,83.28
2023-01-01T08:06:47.611Z,82.48
2023-01-01T08:11:39.409Z,81.42
2023-01-01T08:16:31.791Z,81.87
2023-01-01T08:21:31.286Z,81.75
2023-01-01T08:26:33.649Z,80.42
2023-01-01T08:31:26.448Z,80.40
2023-01-01T08:36:21.466Z,80.80
2023-01-01T08:41:14.439Z,82.35
2023-01-01T08:46:06.710Z,81.94
2023-01-01T08:51:01.280Z,81.52
2023-01-01T08:56:06.954Z,81.67
2023-01-01T09:00:59.609Z,81.92
2023-01-01T09:05:52.063Z,81.29
2023-01-01T09:10:44.808Z,81.65
2023-01-01T09:15:38.754Z,83.10
2023-01-01T09:20:30.619Z,82.94
2023-01-01T09:25:26.551Z,82.54
2023-01-01T09:30:18.464Z,80.15
2023-01-01T09:35:10.648Z,77.59
2023-01-01T09:40:03.648Z,75.77
2023-01-01T09:45:08.087Z,73.83
2023-01-01T09:50:07.637Z,73.61
2023-01-01T09:55:13.826Z,73.27
2023-01-01T10:00:19.668Z,73.33
2023-01-01T10:10:58.099Z,73.58
2023-01-01T10:16:02.726Z,73.09
2023-01-01T10:21:21.741Z,71.42
2023-01-01T10:31:41.895Z,71.90
2023-01-01T10:36:43.026Z,71.61
2023-01-01T10:41:35.997Z,72.24
2023-01-01T10:46:36.873Z,70.32
2023-01-01T10:51:30.193Z,69.72
2023-01-01T10:56:27.990Z,68.88
2023-01-01T11:01:29.984Z,68.53
2023-01-01T11:16:57.737Z,66.75
2023-01-01T11:21:50.138Z,66.31
2023-01-01T11:26:42.402Z,65.13
2023-01-01T11:31:40.360Z,64.58
2023-01-01T11:41:56.560Z,67.95
2023-01-01T11:46:58.440Z,69.88
2023-01-01T11:51:51.308Z,68.75
2023-01-01T11:56:44.722Z,69.93
2023-01-01T12:02:00.011Z,69.66
2023-01-01T12:12:44.795Z,71.35
2023-01-01T12:18:04.060Z,73.04
2023-01-01T12:22:59.959Z,73.18
2023-01-01T12:28:51.616Z,72.44
2023-01-01T12:34:16.087Z,72.58
2023-01-01T12:39:54.268Z,72.00
2023-01-01T12:45:31.120Z,71.78
2023-01-01T12:50:57.147Z,71.66
2023-01-01T12:56:24.795Z,70.79
2023-01-01T13:01:33.175Z,70.84
2023-01-01T13:06:54.188Z,70.49
2023-01-01T13:22:40.624Z,70.11
2023-01-01T13:27:57.570Z,70.38
2023-01-01T13:33:26.671Z,70.16
2023-01-01T13:39:00.039Z,70.08
2023-01-01T13:44:01.468Z,70.36
2023-01-01T13:49:08.392Z,69.20
2023-01-01T13:54:32.885Z,68.82
2023-01-01T14:00:21.404Z,68.89
2023-01-01T14:26:33.551Z,69.76
2023-01-01T14:31:35.308Z,69.81
2023-01-01T14:41:46.461Z,70.42
2023-01-01T15:08:01.982Z,71.40
2023-01-01T15:12:57.960Z,71.41
2023-01-01T15:17:57.743Z,71.83
2023-01-01T15:22:56.340Z,72.84
2023-01-01T15:38:31.234Z,76.31
2023-01-01T15:43:40.658Z,77.74
2023-01-01T15:48:40.185Z,79.53
2023-01-01T15:59:43.265Z,82.15
2023-01-01T16:14:57.479Z,85.90
2023-01-01T16:19:55.480Z,87.32
2023-01-01T16:24:47.418Z,88.30
2023-01-01T16:29:43.559Z,89.49
2023-01-01T16:34:36.519Z,92.20
2023-01-01T16:39:30.430Z,93.13
2023-01-01T16:49:28.163Z,93.94
2023-01-01T16:54:20.186Z,95.39
2023-01-01T16:59:14.613Z,96.39
2023-01-01T17:09:16.607Z,98.06
2023-01-01T17:14:11.736Z,98.44
2023-01-01T17:19:20.890Z,99.06
2023-01-01T17:24:14.844Z,99.46
2023-01-01T17:29:09.378Z,99.49
2023-01-01T17:34:02.533Z,99.45
2023-01-01T17:38:54.880Z,99.65
2023-01-01T17:43:50.936Z,100.00
2023-01-01T17:48:45.224Z,100.00
2023-01-01T17:53:39.834Z,100.00
2023-01-01T17:58:36.417Z,100.00
2023-01-01T18:08:34.449Z,100.00
2023-01-01T18:13:27.425Z,100.00
2023-01-01T18:18:21.020Z,100.00
2023-01-01T18:23:13.379Z,100.00
2023-01-01T18:28:07.701Z,100.00
2023-01-01T18:33:00.384Z,100.00
2023-01-01T18:38:00.415Z,100.00
2023-01-01T19:03:52.685Z,100.00
2023-01-01T19:08:44.646Z,100.00
2023-01-01T19:13:46.702Z,100.00
2023-01-01T19:39:32.893Z,100.00
2023-01-01T19:54:56.004Z,100.00
2023-01-01T19:59:49.821Z,100.00
2023-01-01T20:04:49.848Z,100.00
2023-01-01T20:14:48.351Z,100.00
2023-01-01T20:19:56.156Z,100.00
2023-01-01T20:24:50.343Z,100.00
2023-01-01T20:29:43.787Z,100.00
2023-01-01T20:39:41.675Z,100.00
2023-01-01T20:44:35.437Z,100.00
2023-01-01T20:54:34.200Z,100.00
2023-01-01T20:59:36.797Z,100.00
2023-01-01T21:09:37.486Z,100.00
2023-01-01T21:41:01.262Z,100.00
2023-01-01T21:46:06.098Z,100.00
2023-01-01T21:51:03.739Z,100.00
2023-01-01T22:01:34.522Z,100.00
2023-01-01T22:06:43.415Z,100.00
2023-01-01T22:11:36.450Z,100.00
2023-01-01T22:16:38.976Z,100.00
2023-01-01T22:21:39.865Z,100.00
2023-01-01T22:26:32.557Z,100.00
2023-01-01T22:31:36.675Z,100.00
2023-01-01T22:36:32.218Z,100.00
2023-01-01T22:41:27.946Z,100.00
2023-01-01T22:46:41.377Z,100.00
2023-01-01T22:51:42.175Z,100.00
2023-01-01T23:01:39.851Z,100.00
2023-01-01T23:11:49.753Z,100.00
2023-01-01T23:16:43.635Z,100.00
2023-01-01T23:21:37.729Z,100.00
2023-01-01T23:26:29.931Z,100.00
2023-01-01T23:31:27.276Z,100.00
2023-01-01T23:41:27.163Z,100.00
2023-01-01T23:46:20.880Z,100.00
2023-01-01T23:56:23.577Z,100.00
